-> Other stations

1455

Speed(max): 4.3(7)knots
Direction:171° ( S)
Temperature: 31.5°C
Arrived: 2026-09-04 16:33:28 CEST

Past data:
hh:mmknots
Dir (°)
°C
16:31 5.4 7.6 SSE(167) 31.1
16:29 4.3 7 S(173) 31.6
16:27 4.3 7.6 S(180) 31.5
16:25 4.3 5.9 S(182) 31.0
16:23 5.9 8.1 SSE(158) 30.8
16:21 4.9 8.6 SSE(156) 31.2
16:19 3.8 5.4 S(189) 32.2
16:17 4.9 7 S(186) 31.6
16:15 5.4 8.6 S(178) 31.2
16:13 4.9 7.6 S(190) 31.1
16:11 5.9 8.6 S(176) 30.7
16:09 5.9 8.6 S(173) 30.7
16:07 4.9 7.6 S(172) 31.1
16:05 4.9 8.1 SSW(193) 31.1
15 min. averages:
hh:mmknots
Dir (°)
°C
16:30 4.9 8.6 S(175) 31.4
16:15 5.4 9.2 S(182) 30.8
16:00 5.4 10.3 S(174) 30.7
15:45 5.4 8.6 S(175) 31.1
15:30 5.4 9.2 S(178) 31.8
15:15 5.4 8.6 S(183) 31.6
15:00 4.9 10.3 S(175) 31.8
14:45 4.9 9.2 S(186) 32.3
14:30 4.9 9.2 S(184) 32.2
14:15 4.3 8.6 S(181) 32.6
14:00 5.4 11.3 S(190) 32.6
13:45 4.3 8.6 S(178) 32.7
13:30 4.9 9.2 S(188) 32.2
13:15 5.4 10.8 S(170) 31.6
13:00 4.9 8.6 SSE(158) 31.2
Stations at HR:
1455
-> Other regions

Desktop view
Data provided by Holfuy.
© Holfuy Weather 2026